Newfoundland, Pennsylvania
Current Conditions -  °F | °C
As of 4:53 AM on Thursday 18 Dec 2014 (Local Time) from KMPO Reporting Station
Overcast Overcast  
Wind Chill: 18°   Ceiling: 2800
Heat Index: 29°   Visibility: 10mi
Dew Point: 20°   Wind: 14mph
Humidity: 69%   Direction: 300°WNW
Pressure: 29.87"   Gusts: 23mph
Location:  41.31°N, 75.32°W
Report Text: KMPO 180953Z AUTO 30012G20KT 10SM OVC028 M02/M07 A2987 RMK AO2 SLP134 T10171067
Loading
Personal Weather Stations






























Interactive Weather Map New forecast layout! Learn more

10-Day Weather Forecast

Advertisements
Track Severe Weather on mobile